Weather


ICAO METAR
KAPA KAPA 202053Z 01008KT 10SM FEW085 SCT140 27/10 A2997 RMK AO2 SLP072 T02720100 55010
KASE KASE 202053Z 34010G19KT 10SM FEW110 27/M01 A3011 RMK AO2 PK WND 34030/2018 SLP069 T02671011 58006 $
KBJC KBJC 202050Z 04010KT 10SM SCT090 26/08 A2999
KBKF KBKF 201658Z 02005KT 10SM FEW080 FEW140 23/07 A3000 RMK AO2A SLP084 T02280069
KCFO KCFO 202047Z 06007G16KT 10SM FEW140 29/09 A2997 RMK TCU DSNT S -W
KCOS KCOS 202054Z 12012G17KT 10SM BKN090 BKN140 29/07 A2998 RMK AO2 SLP063 T02940067 53003 $
KCPR KCPR 202053Z 03018G27KT 10SM SCT060 23/06 A3004 RMK AO2 PK WND 02027/2050 SLP114 T02280061 53009
KCYS KCYS 202053Z 04012G19KT 10SM FEW055 SCT070 22/08 A3004 RMK AO2 SLP090 T02170078 53003
KDEN KDEN 202053Z 09007G16KT 10SM FEW080 FEW130 27/11 A2995 RMK AO2 SLP060 T02720106 55006
KEGE KEGE 202056Z 24020G27KT 10SM FEW120 31/M01 A3000 RMK AO2 PK WND 23037/2011 SLP086 6//// T03111006 56012 PNO $
KFCS KFCS 201658Z AUTO 09007KT 10SM CLR 32/M01 A2992 RMK AO2 SLP060 T03211009 $
KFMN KFMN 202053Z 31017G28KT 10SM CLR 37/M02 A2993 RMK AO2 PK WND 31034/2006 SLP052 T03721022 56018
KFNL KFNL 202056Z 06007KT 020V120 9SM CLR 29/09 A2996 RMK AO2 SLP081 T02940089 56008
KGJT KGJT 202053Z 31017G27KT 10SM CLR 37/M01 A2986 RMK AO2 PK WND 27027/2049 SLP026 T03721006 58022
KGUR KGUR 201658Z AUTO 36012G19KT 10SM CLR 22/07 A2995 RMK AO2 SLP100 T02230068
KPUB KPUB 202053Z 10017G25KT 10SM CLR 34/08 A2982 RMK AO2 PK WND 10026/2031 SLP031 T03390083 55007
KRAP KRAP 202052Z 34015G23KT 10SM CLR 21/07 A2996 RMK AO2 SLP125 60003 T02060072 50009
KRCA KRCA 201656Z AUTO 01022G26KT 10SM FEW024 SCT029 BKN049 19/11 A2991 RMK AO2 PK WND 35026/20 SLP113 T01910111 $

Surface Data
Click here.

This is a composite map contain the following analyses: radar summary (color filled areas), surface data plot (composite station model), frontal locations (in various bold lines) and pressure contours (in thin blue lines).